Kezdőlap
METAR-TAF:

METAR-TAF

Repülőterek :

Mount Carmel Municipal Airport

Mount Carmel, Illinois, Amerikai Egyesült Államok

földrajzi szélesség: 38-36-23N, földrajzi hosszúság: 087-43-36W, magasság: 131 m

Jelenlegi meteorológiai megfigyelések

A jelentés 28 perccel ezelõtt készült, 09:15 UTC
Észak-északkeleti szél 4 kt
Hőmérséklet 21°C
Páratartalom 78%
Légköri nyomás 1019 hPa
Látótávolság: 16.1 km
Szakadozott felhőzet 5000 lábon
Borult 6000 lábon

METAR: KAJG 210915Z AUTO 02004KT 10SM BKN050 OVC060 21/17 A3008 RMK AO2 T02100166

Idő: 04:43 (09:43 UTC)


TAF: hiányzik

Meteorológiai megfigyelések és előrejelzések több, mint 4000 repülőtéren (METAR és TAF jelentéseket).

A térképen piros és sárga pontok jelzik az elérhető meteorológiai állomásokat.

Mozgassa az egeret a pont fölött, hogy megjelenjen az állomás neve.

Azután kattintson az időjárási megfigyelések és előrejelzések megtekintéséhez.

A térkép megváltoztatása: kattintson a fekete keresztel jelölt zöld gombra ráközelítéshez, a vonallal jelölt zöld gombra távolításhoz, vagy a zöld nyilakra a szomszédos térképek eléréséhez.


METAR-TAF: